createdAt,value
2023-04-26T00:02:06.730Z,63.07
2023-04-26T00:04:36.625Z,63.03
2023-04-26T00:07:05.462Z,63.28
2023-04-26T00:09:36.104Z,63.37
2023-04-26T00:12:05.901Z,63.08
2023-04-26T00:14:35.053Z,62.95
2023-04-26T00:17:04.782Z,63.16
2023-04-26T00:19:34.044Z,63.67
2023-04-26T00:22:03.350Z,63.71
2023-04-26T00:24:33.368Z,63.72
2023-04-26T00:27:03.648Z,63.82
2023-04-26T00:29:33.039Z,63.68
2023-04-26T00:32:01.886Z,63.77
2023-04-26T00:34:37.874Z,63.53
2023-04-26T00:37:07.774Z,63.28
2023-04-26T00:39:36.717Z,63.49
2023-04-26T00:42:05.898Z,63.96
2023-04-26T00:44:35.273Z,63.61
2023-04-26T00:47:04.158Z,62.90
2023-04-26T00:49:33.154Z,62.45
2023-04-26T00:52:01.958Z,62.42
2023-04-26T00:54:31.187Z,62.61
2023-04-26T00:57:01.158Z,62.49
2023-04-26T00:59:30.321Z,62.29
2023-04-26T01:01:59.428Z,62.07
2023-04-26T01:04:30.646Z,61.84
2023-04-26T01:07:01.074Z,61.96
2023-04-26T01:09:33.479Z,62.19
2023-04-26T01:12:02.807Z,62.15
2023-04-26T01:14:33.083Z,61.97
2023-04-26T01:17:04.055Z,62.05
2023-04-26T01:19:33.209Z,62.59
2023-04-26T01:22:01.852Z,63.33
2023-04-26T01:24:31.392Z,63.36
2023-04-26T01:27:00.380Z,63.31
2023-04-26T01:29:29.720Z,63.67
2023-04-26T01:31:58.499Z,63.89
2023-04-26T01:34:27.108Z,63.92
2023-04-26T01:36:56.304Z,63.94
2023-04-26T01:39:25.172Z,64.07
2023-04-26T01:41:54.614Z,64.10
2023-04-26T01:44:23.444Z,64.32
2023-04-26T01:46:52.408Z,64.38
2023-04-26T01:49:21.320Z,64.45
2023-04-26T01:51:50.782Z,64.38
2023-04-26T01:54:19.581Z,64.57
2023-04-26T01:56:48.581Z,64.33
2023-04-26T01:59:17.673Z,64.18
2023-04-26T02:01:47.463Z,64.18
2023-04-26T02:04:16.763Z,64.40
2023-04-26T02:06:45.421Z,64.42
2023-04-26T02:09:14.330Z,64.65
2023-04-26T02:11:43.264Z,64.60
2023-04-26T02:14:12.611Z,64.60
2023-04-26T02:16:41.838Z,64.45
2023-04-26T02:19:11.722Z,63.62
2023-04-26T02:21:58.364Z,62.81
2023-04-26T02:24:27.460Z,62.97
2023-04-26T02:26:57.056Z,63.12
2023-04-26T02:29:42.327Z,63.45
2023-04-26T02:32:14.818Z,63.22
2023-04-26T02:34:45.463Z,63.19
2023-04-26T02:37:14.529Z,63.26
2023-04-26T02:39:43.491Z,63.29
2023-04-26T02:42:12.878Z,62.78
2023-04-26T02:44:41.826Z,62.83
2023-04-26T02:47:12.134Z,63.16
2023-04-26T02:49:41.519Z,63.48
2023-04-26T02:52:10.815Z,63.82
2023-04-26T02:54:39.749Z,63.98
2023-04-26T02:57:08.571Z,63.92
2023-04-26T02:59:37.770Z,64.16
2023-04-26T03:02:07.745Z,64.58
2023-04-26T03:04:37.658Z,64.76
2023-04-26T03:07:07.303Z,64.51
2023-04-26T03:09:38.575Z,64.40
2023-04-26T03:12:08.108Z,64.23
2023-04-26T03:14:37.369Z,64.45
2023-04-26T03:17:06.779Z,64.23
2023-04-26T03:19:35.704Z,63.95
2023-04-26T03:22:04.599Z,63.80
2023-04-26T03:24:33.465Z,64.32
2023-04-26T03:27:03.282Z,64.42
2023-04-26T03:29:32.592Z,64.34
2023-04-26T03:32:02.266Z,64.29
2023-04-26T03:34:31.198Z,64.26
2023-04-26T03:37:00.204Z,64.61
2023-04-26T03:39:29.215Z,64.56
2023-04-26T03:41:57.982Z,64.26
2023-04-26T03:44:28.343Z,64.52
2023-04-26T03:46:58.721Z,64.78
2023-04-26T03:49:27.438Z,64.87
2023-04-26T03:51:56.457Z,64.51
2023-04-26T03:54:25.554Z,64.87
2023-04-26T03:56:54.847Z,65.57
2023-04-26T03:59:23.470Z,66.30
2023-04-26T04:01:52.677Z,66.38
2023-04-26T04:04:22.432Z,66.30
2023-04-26T04:06:52.188Z,66.41
2023-04-26T04:09:21.011Z,66.96
2023-04-26T04:11:49.911Z,67.03
2023-04-26T04:14:19.383Z,66.93
2023-04-26T04:16:48.277Z,67.06
2023-04-26T04:19:17.532Z,66.90
2023-04-26T04:21:46.488Z,67.20
2023-04-26T04:24:15.489Z,67.20
2023-04-26T04:26:44.338Z,66.90
2023-04-26T04:29:13.152Z,66.47
2023-04-26T04:31:43.099Z,66.42
2023-04-26T04:34:12.069Z,66.47
2023-04-26T04:36:41.157Z,66.29
2023-04-26T04:39:13.998Z,66.10
2023-04-26T04:41:49.283Z,65.90
2023-04-26T04:44:21.236Z,65.97
2023-04-26T04:46:50.410Z,66.32
2023-04-26T04:49:19.592Z,65.61
2023-04-26T04:51:48.645Z,64.23
2023-04-26T04:54:18.743Z,63.39
2023-04-26T04:56:47.675Z,63.26
2023-04-26T04:59:16.663Z,63.70
2023-04-26T05:01:45.695Z,63.63
2023-04-26T05:04:14.846Z,63.41
2023-04-26T05:06:43.641Z,63.68
2023-04-26T05:09:12.357Z,63.68
2023-04-26T05:11:41.012Z,63.80
2023-04-26T05:14:09.912Z,63.80
2023-04-26T05:16:38.828Z,63.84
2023-04-26T05:19:09.507Z,64.43
2023-04-26T05:21:38.839Z,64.61
2023-04-26T05:24:07.618Z,64.65
2023-04-26T05:26:36.996Z,64.22
2023-04-26T05:29:05.577Z,64.22
2023-04-26T05:31:34.745Z,64.17
2023-04-26T05:34:04.314Z,64.14
2023-04-26T05:36:33.253Z,64.03
2023-04-26T05:39:02.559Z,64.04
2023-04-26T05:41:31.615Z,64.16
2023-04-26T05:44:00.509Z,64.09
2023-04-26T05:46:29.701Z,63.70
2023-04-26T05:48:58.788Z,63.25
2023-04-26T05:51:28.568Z,63.15
2023-04-26T05:53:57.789Z,63.14
2023-04-26T05:56:27.144Z,62.94
2023-04-26T05:58:55.908Z,62.55
2023-04-26T06:01:24.790Z,62.32
2023-04-26T06:03:55.945Z,62.23
2023-04-26T06:06:28.549Z,62.66
2023-04-26T06:08:57.561Z,62.63
2023-04-26T06:11:27.368Z,62.19
2023-04-26T06:13:55.953Z,62.19
2023-04-26T06:16:25.262Z,62.10
2023-04-26T06:18:54.302Z,62.19
2023-04-26T06:21:23.377Z,61.86
2023-04-26T06:23:52.803Z,61.23
2023-04-26T06:26:22.279Z,61.13
2023-04-26T06:28:52.225Z,61.10
2023-04-26T06:31:23.372Z,60.80
2023-04-26T06:33:52.945Z,60.42
2023-04-26T06:36:22.378Z,59.92
2023-04-26T06:38:51.216Z,59.31
2023-04-26T06:41:20.120Z,58.53
2023-04-26T06:43:49.630Z,57.10
2023-04-26T06:46:19.060Z,55.51
2023-04-26T06:48:48.368Z,54.16
2023-04-26T06:51:17.427Z,52.67
2023-04-26T06:53:46.997Z,51.29
2023-04-26T06:56:17.006Z,49.64
2023-04-26T06:59:03.692Z,48.76
2023-04-26T07:01:36.763Z,47.87
2023-04-26T07:04:11.274Z,46.80
2023-04-26T07:06:40.378Z,45.74
2023-04-26T07:09:10.880Z,44.81
2023-04-26T07:11:39.956Z,43.68
2023-04-26T07:14:09.454Z,42.84
2023-04-26T07:16:39.108Z,41.03
2023-04-26T07:19:08.304Z,39.06
2023-04-26T07:21:38.126Z,37.46
2023-04-26T07:24:08.565Z,36.81
2023-04-26T07:26:38.355Z,35.52
2023-04-26T07:29:07.243Z,34.18
2023-04-26T07:31:36.898Z,32.58
2023-04-26T07:34:07.368Z,32.02
2023-04-26T07:36:36.681Z,30.91
2023-04-26T07:39:06.875Z,29.17
2023-04-26T07:41:35.981Z,28.21
2023-04-26T07:44:05.954Z,28.15
2023-04-26T07:46:35.619Z,28.27
2023-04-26T07:49:05.130Z,27.80
2023-04-26T07:51:36.379Z,26.88
2023-04-26T07:54:06.974Z,25.72
2023-04-26T07:56:37.077Z,25.60
2023-04-26T07:59:06.658Z,26.09
2023-04-26T08:01:35.874Z,25.35
2023-04-26T08:04:05.903Z,25.18
2023-04-26T08:06:35.259Z,24.80
2023-04-26T08:09:06.479Z,24.71
2023-04-26T08:11:35.925Z,23.94
2023-04-26T08:14:05.115Z,23.82
2023-04-26T08:16:34.684Z,23.70
2023-04-26T08:19:04.271Z,22.87
2023-04-26T08:21:33.557Z,22.42
2023-04-26T08:24:02.855Z,22.37
2023-04-26T08:26:31.882Z,21.91
2023-04-26T08:29:00.644Z,22.39
2023-04-26T08:31:29.788Z,22.03
2023-04-26T08:33:58.953Z,21.45
2023-04-26T08:36:28.404Z,21.54
2023-04-26T08:38:58.793Z,20.99
2023-04-26T08:41:30.678Z,20.27
2023-04-26T08:44:00.673Z,19.82
2023-04-26T08:46:34.263Z,19.72
2023-04-26T08:49:27.875Z,19.31
2023-04-26T08:51:58.988Z,19.11
2023-04-26T08:54:30.787Z,18.26
2023-04-26T08:57:00.806Z,18.16
2023-04-26T08:59:32.682Z,18.43
2023-04-26T09:02:04.034Z,18.03
2023-04-26T09:04:34.276Z,18.00
2023-04-26T09:07:05.449Z,17.66
2023-04-26T09:09:43.539Z,17.40
2023-04-26T09:12:12.882Z,16.07
2023-04-26T09:14:42.010Z,15.61
2023-04-26T09:17:34.717Z,15.69
2023-04-26T09:20:28.323Z,15.57
2023-04-26T09:23:08.589Z,15.71
2023-04-26T09:25:38.632Z,16.03
2023-04-26T09:28:25.252Z,16.03
2023-04-26T09:30:54.263Z,15.37
2023-04-26T09:33:23.380Z,14.51
2023-04-26T09:35:52.522Z,14.22
2023-04-26T09:38:21.868Z,14.77
2023-04-26T09:40:51.909Z,14.51
2023-04-26T09:43:22.886Z,14.14
2023-04-26T09:45:54.653Z,14.59
2023-04-26T09:48:27.032Z,14.27
2023-04-26T09:51:09.601Z,13.64
2023-04-26T09:53:54.452Z,14.29
2023-04-26T09:56:25.396Z,13.96
2023-04-26T09:58:59.042Z,13.85
2023-04-26T10:01:30.683Z,13.79
2023-04-26T10:04:05.021Z,13.39
2023-04-26T10:06:34.855Z,13.04
2023-04-26T10:09:06.083Z,13.10
2023-04-26T10:11:37.499Z,13.36
2023-04-26T10:14:07.867Z,13.24
2023-04-26T10:16:39.040Z,13.24
2023-04-26T10:19:08.903Z,13.33
2023-04-26T10:21:39.772Z,13.66
2023-04-26T10:24:11.383Z,13.59
2023-04-26T10:26:57.732Z,13.46
2023-04-26T10:29:47.721Z,13.11
2023-04-26T10:32:20.455Z,12.80
2023-04-26T10:35:14.996Z,13.02
2023-04-26T10:38:02.776Z,12.33
2023-04-26T10:40:35.686Z,12.42
2023-04-26T10:43:16.974Z,12.23
2023-04-26T10:45:48.435Z,12.12
2023-04-26T10:48:23.234Z,11.84
2023-04-26T10:51:02.210Z,11.92
2023-04-26T10:53:46.579Z,12.04
2023-04-26T10:56:24.244Z,11.90
2023-04-26T10:59:33.152Z,11.43
2023-04-26T11:02:04.379Z,11.46
2023-04-26T11:04:55.291Z,11.25
2023-04-26T11:07:44.741Z,10.87
2023-04-26T11:10:24.202Z,10.71
2023-04-26T11:13:03.981Z,10.61
2023-04-26T11:15:34.132Z,10.51
2023-04-26T11:18:05.229Z,10.49
2023-04-26T11:20:35.030Z,10.57
2023-04-26T11:23:04.559Z,11.11
2023-04-26T11:25:33.396Z,11.34
2023-04-26T11:28:03.830Z,11.23
2023-04-26T11:30:33.609Z,11.14
2023-04-26T11:33:07.104Z,10.98
2023-04-26T11:35:37.075Z,11.16
2023-04-26T11:38:06.766Z,11.29
2023-04-26T11:40:37.765Z,11.40
2023-04-26T11:43:09.046Z,11.70
2023-04-26T11:45:39.277Z,12.26
2023-04-26T11:48:13.222Z,12.79
2023-04-26T11:50:43.375Z,12.73
2023-04-26T11:53:13.181Z,12.50
2023-04-26T11:55:42.819Z,12.72
2023-04-26T11:58:15.135Z,12.33
2023-04-26T12:01:03.189Z,11.76
2023-04-26T12:03:35.705Z,12.08
2023-04-26T12:06:05.540Z,11.76
2023-04-26T12:08:34.851Z,11.55
2023-04-26T12:11:04.109Z,11.06
2023-04-26T12:13:33.619Z,11.03
2023-04-26T12:16:22.298Z,10.70
2023-04-26T12:18:57.404Z,10.45
2023-04-26T12:21:30.352Z,10.26
2023-04-26T12:23:59.831Z,10.33
2023-04-26T12:26:44.085Z,9.90
2023-04-26T12:29:14.208Z,9.95
2023-04-26T12:31:43.784Z,9.92
2023-04-26T12:34:13.465Z,9.86
2023-04-26T12:36:46.167Z,9.72
2023-04-26T12:39:16.459Z,10.13
2023-04-26T12:41:47.161Z,10.13
2023-04-26T12:44:18.376Z,10.08
2023-04-26T12:46:52.978Z,10.13
2023-04-26T12:49:22.447Z,10.23
2023-04-26T12:51:52.184Z,10.13
2023-04-26T12:54:21.127Z,10.12
2023-04-26T12:56:50.182Z,10.60
2023-04-26T12:59:19.669Z,11.21
2023-04-26T13:01:48.566Z,11.43
2023-04-26T13:04:17.630Z,11.35
2023-04-26T13:06:46.788Z,11.26
2023-04-26T13:09:16.245Z,11.23
2023-04-26T13:11:45.242Z,11.14
2023-04-26T13:14:14.349Z,11.47
2023-04-26T13:16:44.242Z,11.98
2023-04-26T13:19:13.585Z,12.13
2023-04-26T13:21:42.831Z,11.97
2023-04-26T13:24:12.591Z,11.62
2023-04-26T13:26:41.800Z,11.51
2023-04-26T13:29:10.630Z,12.00
2023-04-26T13:31:40.410Z,12.11
2023-04-26T13:34:10.192Z,12.59
2023-04-26T13:36:40.298Z,12.51
2023-04-26T13:39:09.533Z,12.49
2023-04-26T13:41:38.490Z,11.81
2023-04-26T13:44:07.600Z,11.25
2023-04-26T13:46:36.796Z,11.20
2023-04-26T13:49:06.007Z,11.30
2023-04-26T13:51:35.578Z,11.20
2023-04-26T13:54:08.395Z,10.67
2023-04-26T13:56:38.385Z,10.27
2023-04-26T13:59:08.523Z,10.03
2023-04-26T14:01:37.996Z,10.33
2023-04-26T14:04:11.581Z,10.89
2023-04-26T14:06:41.124Z,10.66
2023-04-26T14:09:10.990Z,10.32
2023-04-26T14:11:41.576Z,10.24
2023-04-26T14:14:11.871Z,10.76
2023-04-26T14:16:41.539Z,10.44
2023-04-26T14:19:10.946Z,10.02
2023-04-26T14:21:40.394Z,9.90
2023-04-26T14:24:09.546Z,9.57
2023-04-26T14:26:38.650Z,10.12
2023-04-26T14:29:07.754Z,10.32
2023-04-26T14:31:36.902Z,10.16
2023-04-26T14:34:06.129Z,9.79
2023-04-26T14:36:35.337Z,10.35
2023-04-26T14:39:04.508Z,10.09
2023-04-26T14:41:33.164Z,9.80
2023-04-26T14:44:02.660Z,9.32
2023-04-26T14:46:31.691Z,9.26
2023-04-26T14:49:01.236Z,9.63
2023-04-26T14:51:30.626Z,9.63
2023-04-26T14:54:01.175Z,10.52
2023-04-26T14:56:35.101Z,10.87
2023-04-26T14:59:06.971Z,11.03
2023-04-26T15:01:36.064Z,11.41
2023-04-26T15:04:05.494Z,11.36
2023-04-26T15:06:34.947Z,11.67
2023-04-26T15:09:05.025Z,11.38
2023-04-26T15:11:34.466Z,12.21
2023-04-26T15:14:04.579Z,12.75
2023-04-26T15:16:34.344Z,12.90
2023-04-26T15:19:03.581Z,12.68
2023-04-26T15:21:32.916Z,13.06
2023-04-26T15:24:01.965Z,13.62
2023-04-26T15:26:31.426Z,13.20
2023-04-26T15:29:00.893Z,13.31
2023-04-26T15:31:30.683Z,13.76
2023-04-26T15:34:00.316Z,14.35
2023-04-26T15:36:29.406Z,14.59
2023-04-26T15:38:58.981Z,14.52
2023-04-26T15:41:28.471Z,14.42
2023-04-26T15:43:58.172Z,14.64
2023-04-26T15:46:30.486Z,15.52
2023-04-26T15:48:59.984Z,15.99
2023-04-26T15:51:28.744Z,15.64
2023-04-26T15:53:58.447Z,15.47
2023-04-26T15:56:28.001Z,15.89
2023-04-26T15:58:57.919Z,15.90
2023-04-26T16:01:29.851Z,16.26
2023-04-26T16:03:59.307Z,16.04
2023-04-26T16:06:28.939Z,15.92
2023-04-26T16:08:58.857Z,16.34
2023-04-26T16:11:28.984Z,17.35
2023-04-26T16:13:58.554Z,18.08
2023-04-26T16:16:28.526Z,17.27
2023-04-26T16:18:58.270Z,17.35
2023-04-26T16:21:27.615Z,17.35
2023-04-26T16:23:56.475Z,18.03
2023-04-26T16:26:26.432Z,18.50
2023-04-26T16:28:55.705Z,18.37
2023-04-26T16:31:25.191Z,17.64
2023-04-26T16:33:55.110Z,17.49
2023-04-26T16:36:26.002Z,17.72
2023-04-26T16:38:55.580Z,17.92
2023-04-26T16:41:27.083Z,17.91
2023-04-26T16:43:56.911Z,17.61
2023-04-26T16:46:26.608Z,17.58
2023-04-26T16:49:00.039Z,16.83
2023-04-26T16:51:29.514Z,16.72
2023-04-26T16:53:58.583Z,17.66
2023-04-26T16:56:28.504Z,18.01
2023-04-26T16:58:58.032Z,17.76
2023-04-26T17:01:27.457Z,17.66
2023-04-26T17:03:57.714Z,17.61
2023-04-26T17:06:28.155Z,18.08
2023-04-26T17:08:57.568Z,18.45
2023-04-26T17:11:26.660Z,18.42
2023-04-26T17:13:55.748Z,18.40
2023-04-26T17:16:24.894Z,18.54
2023-04-26T17:18:53.957Z,18.72
2023-04-26T17:21:22.927Z,19.16
2023-04-26T17:23:51.770Z,19.13
2023-04-26T17:26:22.618Z,19.31
2023-04-26T17:28:51.899Z,19.54
2023-04-26T17:31:20.799Z,20.00
2023-04-26T17:33:50.128Z,19.95
2023-04-26T17:36:19.775Z,20.75
2023-04-26T17:38:48.963Z,21.74
2023-04-26T17:41:20.311Z,22.13
2023-04-26T17:43:49.629Z,22.58
2023-04-26T17:46:19.398Z,23.00
2023-04-26T17:48:48.371Z,23.12
2023-04-26T17:51:18.056Z,23.49
2023-04-26T17:53:46.977Z,23.86
2023-04-26T17:56:15.956Z,24.13
2023-04-26T17:58:45.056Z,24.64
2023-04-26T18:01:14.177Z,24.35
2023-04-26T18:03:43.336Z,24.59
2023-04-26T18:06:12.725Z,25.12
2023-04-26T18:08:42.657Z,25.73
2023-04-26T18:11:12.723Z,26.20
2023-04-26T18:13:42.136Z,26.74
2023-04-26T18:16:13.044Z,27.56
2023-04-26T18:18:42.775Z,28.06
2023-04-26T18:21:12.345Z,28.78
2023-04-26T18:23:42.843Z,29.16
2023-04-26T18:26:12.188Z,29.90
2023-04-26T18:28:41.503Z,30.20
2023-04-26T18:31:10.487Z,30.65
2023-04-26T18:33:39.511Z,31.44
2023-04-26T18:36:09.105Z,31.74
2023-04-26T18:38:37.951Z,32.30
2023-04-26T18:41:06.796Z,32.72
2023-04-26T18:43:35.788Z,32.73
2023-04-26T18:46:04.702Z,32.89
2023-04-26T18:48:33.545Z,33.11
2023-04-26T18:51:02.500Z,32.74
2023-04-26T18:53:31.533Z,32.92
2023-04-26T18:56:00.233Z,34.21
2023-04-26T18:58:29.604Z,34.84
2023-04-26T19:00:58.616Z,35.11
2023-04-26T19:03:28.287Z,35.25
2023-04-26T19:05:57.588Z,35.45
2023-04-26T19:08:27.596Z,35.43
2023-04-26T19:10:57.136Z,35.31
2023-04-26T19:13:26.739Z,34.95
2023-04-26T19:15:55.964Z,35.22
2023-04-26T19:18:26.045Z,36.04
2023-04-26T19:20:55.308Z,36.26
2023-04-26T19:23:24.186Z,35.81
2023-04-26T19:25:53.387Z,35.76
2023-04-26T19:28:23.647Z,36.25
2023-04-26T19:30:53.713Z,36.42
2023-04-26T19:33:23.054Z,36.73
2023-04-26T19:35:52.979Z,36.93
2023-04-26T19:38:22.949Z,37.37
2023-04-26T19:40:53.403Z,37.70
2023-04-26T19:43:24.406Z,37.98
2023-04-26T19:45:56.377Z,37.96
2023-04-26T19:48:27.093Z,38.17
2023-04-26T19:50:56.875Z,38.17
2023-04-26T19:53:26.885Z,38.18
2023-04-26T19:55:59.756Z,38.35
2023-04-26T19:58:30.708Z,38.42
2023-04-26T20:01:04.437Z,38.71
2023-04-26T20:03:35.796Z,39.06
2023-04-26T20:06:06.029Z,38.92
2023-04-26T20:08:36.223Z,39.03
2023-04-26T20:11:05.972Z,39.11
2023-04-26T20:13:35.914Z,39.25
2023-04-26T20:16:05.730Z,39.41
2023-04-26T20:18:37.781Z,39.72
2023-04-26T20:21:07.137Z,40.02
2023-04-26T20:23:37.056Z,39.78
2023-04-26T20:26:06.652Z,39.99
2023-04-26T20:28:38.120Z,40.22
2023-04-26T20:31:09.098Z,40.25
2023-04-26T20:33:40.470Z,41.43
2023-04-26T20:36:11.660Z,41.25
2023-04-26T20:38:41.066Z,42.11
2023-04-26T20:41:11.493Z,43.23
2023-04-26T20:43:41.288Z,43.65
2023-04-26T20:46:10.598Z,44.02
2023-04-26T20:48:40.454Z,44.12
2023-04-26T20:51:09.651Z,43.32
2023-04-26T20:53:38.880Z,42.30
2023-04-26T20:56:08.583Z,42.03
2023-04-26T20:58:38.750Z,41.49
2023-04-26T21:01:10.019Z,41.30
2023-04-26T21:03:39.453Z,41.57
2023-04-26T21:06:09.617Z,42.24
2023-04-26T21:08:39.943Z,42.87
2023-04-26T21:11:09.812Z,43.31
2023-04-26T21:13:40.170Z,42.93
2023-04-26T21:16:10.771Z,42.89
2023-04-26T21:18:41.932Z,43.14
2023-04-26T21:21:12.666Z,43.15
2023-04-26T21:23:43.726Z,43.70
2023-04-26T21:26:12.851Z,44.64
2023-04-26T21:28:42.488Z,45.48
2023-04-26T21:31:12.316Z,45.61
2023-04-26T21:33:42.293Z,46.02
2023-04-26T21:36:11.739Z,46.17
2023-04-26T21:38:40.561Z,46.48
2023-04-26T21:41:09.257Z,46.20
2023-04-26T21:43:38.150Z,46.24
2023-04-26T21:46:08.351Z,45.77
2023-04-26T21:48:39.165Z,45.61
2023-04-26T21:51:08.429Z,45.14
2023-04-26T21:53:37.779Z,45.09
2023-04-26T21:56:07.146Z,44.84
2023-04-26T21:58:36.181Z,44.92
2023-04-26T22:01:12.700Z,44.84
2023-04-26T22:03:42.073Z,45.01
2023-04-26T22:06:12.301Z,44.88
2023-04-26T22:08:41.863Z,45.56
2023-04-26T22:11:11.549Z,46.49
2023-04-26T22:13:41.019Z,47.30
2023-04-26T22:16:10.443Z,47.62
2023-04-26T22:18:39.185Z,47.64
2023-04-26T22:21:07.928Z,47.76
2023-04-26T22:23:36.968Z,47.86
2023-04-26T22:26:06.262Z,47.98
2023-04-26T22:28:35.660Z,48.25
2023-04-26T22:31:04.954Z,48.38
2023-04-26T22:33:34.620Z,48.58
2023-04-26T22:36:04.864Z,48.73
2023-04-26T22:38:34.031Z,48.81
2023-04-26T22:41:03.001Z,48.86
2023-04-26T22:43:32.494Z,49.01
2023-04-26T22:46:01.797Z,49.30
2023-04-26T22:48:31.127Z,49.37
2023-04-26T22:51:00.979Z,49.59
2023-04-26T22:53:30.707Z,49.65
2023-04-26T22:56:00.292Z,49.70
2023-04-26T22:58:29.458Z,49.68
2023-04-26T23:00:59.469Z,49.87
2023-04-26T23:03:29.279Z,50.06
2023-04-26T23:05:58.487Z,50.26
2023-04-26T23:08:27.546Z,50.89
2023-04-26T23:10:56.023Z,50.98
2023-04-26T23:13:27.728Z,50.92
2023-04-26T23:15:56.721Z,51.10
2023-04-26T23:18:26.953Z,51.12
2023-04-26T23:20:55.755Z,51.38
2023-04-26T23:23:24.750Z,51.71
2023-04-26T23:25:53.426Z,52.00
2023-04-26T23:28:22.177Z,52.16
2023-04-26T23:30:51.362Z,52.10
2023-04-26T23:33:20.099Z,51.73
2023-04-26T23:35:49.345Z,51.66
2023-04-26T23:38:18.116Z,51.77
2023-04-26T23:40:47.173Z,51.71
2023-04-26T23:43:15.788Z,51.40
2023-04-26T23:45:48.191Z,51.62
2023-04-26T23:48:17.955Z,51.53
2023-04-26T23:50:46.765Z,51.31
2023-04-26T23:53:15.352Z,51.27
2023-04-26T23:55:44.554Z,51.68
2023-04-26T23:58:13.307Z,52.58
